sensor_id;sensor_type;location;lat;lon;timestamp;P1;durP1;ratioP1;P2;durP2;ratioP2
21166;SDS011;10741;52.272;9.580;2023-04-29T00:01:18;27.10;;;20.13;;
21166;SDS011;10741;52.272;9.580;2023-04-29T00:03:44;28.17;;;20.57;;
21166;SDS011;10741;52.272;9.580;2023-04-29T00:06:09;29.47;;;20.63;;
21166;SDS011;10741;52.272;9.580;2023-04-29T00:08:35;27.93;;;21.93;;
21166;SDS011;10741;52.272;9.580;2023-04-29T00:11:02;33.37;;;22.53;;
21166;SDS011;10741;52.272;9.580;2023-04-29T00:13:28;35.07;;;24.77;;
21166;SDS011;10741;52.272;9.580;2023-04-29T00:15:54;39.37;;;25.40;;
21166;SDS011;10741;52.272;9.580;2023-04-29T00:18:19;37.03;;;25.83;;
21166;SDS011;10741;52.272;9.580;2023-04-29T00:20:45;37.90;;;25.93;;
21166;SDS011;10741;52.272;9.580;2023-04-29T00:23:11;37.30;;;25.40;;
21166;SDS011;10741;52.272;9.580;2023-04-29T00:25:37;38.97;;;25.70;;
21166;SDS011;10741;52.272;9.580;2023-04-29T00:28:03;37.90;;;24.10;;
21166;SDS011;10741;52.272;9.580;2023-04-29T00:30:32;35.07;;;24.97;;
21166;SDS011;10741;52.272;9.580;2023-04-29T00:32:58;37.33;;;24.93;;
21166;SDS011;10741;52.272;9.580;2023-04-29T00:35:24;39.30;;;26.47;;
21166;SDS011;10741;52.272;9.580;2023-04-29T00:37:50;38.93;;;26.27;;
21166;SDS011;10741;52.272;9.580;2023-04-29T00:40:15;39.33;;;27.90;;
21166;SDS011;10741;52.272;9.580;2023-04-29T00:42:41;45.70;;;26.20;;
21166;SDS011;10741;52.272;9.580;2023-04-29T00:45:08;39.73;;;27.03;;
21166;SDS011;10741;52.272;9.580;2023-04-29T00:47:35;41.93;;;27.43;;
21166;SDS011;10741;52.272;9.580;2023-04-29T00:50:01;42.63;;;26.47;;
21166;SDS011;10741;52.272;9.580;2023-04-29T00:52:28;43.60;;;26.93;;
21166;SDS011;10741;52.272;9.580;2023-04-29T00:54:58;39.90;;;24.80;;
21166;SDS011;10741;52.272;9.580;2023-04-29T00:57:24;39.17;;;25.40;;
21166;SDS011;10741;52.272;9.580;2023-04-29T00:59:53;42.63;;;25.50;;
21166;SDS011;10741;52.272;9.580;2023-04-29T01:02:19;44.17;;;26.23;;
21166;SDS011;10741;52.272;9.580;2023-04-29T01:04:45;41.73;;;26.50;;
21166;SDS011;10741;52.272;9.580;2023-04-29T01:07:16;42.50;;;25.17;;
21166;SDS011;10741;52.272;9.580;2023-04-29T01:10:06;45.03;;;27.00;;
21166;SDS011;10741;52.272;9.580;2023-04-29T01:15:04;45.40;;;26.53;;
21166;SDS011;10741;52.272;9.580;2023-04-29T01:17:40;45.43;;;27.63;;
21166;SDS011;10741;52.272;9.580;2023-04-29T01:20:12;43.00;;;26.37;;
21166;SDS011;10741;52.272;9.580;2023-04-29T01:22:39;46.33;;;26.20;;
21166;SDS011;10741;52.272;9.580;2023-04-29T01:25:05;41.30;;;25.70;;
21166;SDS011;10741;52.272;9.580;2023-04-29T01:35:44;35.37;;;21.67;;
21166;SDS011;10741;52.272;9.580;2023-04-29T01:41:17;36.00;;;23.30;;
21166;SDS011;10741;52.272;9.580;2023-04-29T01:43:50;33.20;;;21.13;;
21166;SDS011;10741;52.272;9.580;2023-04-29T01:46:17;37.00;;;22.17;;
21166;SDS011;10741;52.272;9.580;2023-04-29T01:48:43;34.17;;;21.00;;
21166;SDS011;10741;52.272;9.580;2023-04-29T01:51:10;33.87;;;20.10;;
21166;SDS011;10741;52.272;9.580;2023-04-29T01:53:36;27.50;;;16.93;;
21166;SDS011;10741;52.272;9.580;2023-04-29T01:56:04;29.33;;;18.43;;
21166;SDS011;10741;52.272;9.580;2023-04-29T01:58:31;28.17;;;16.77;;
21166;SDS011;10741;52.272;9.580;2023-04-29T02:00:57;23.03;;;14.23;;
21166;SDS011;10741;52.272;9.580;2023-04-29T02:03:22;22.90;;;14.00;;
21166;SDS011;10741;52.272;9.580;2023-04-29T02:05:48;20.80;;;13.37;;
21166;SDS011;10741;52.272;9.580;2023-04-29T02:08:15;19.63;;;12.23;;
21166;SDS011;10741;52.272;9.580;2023-04-29T02:10:41;18.33;;;12.43;;
21166;SDS011;10741;52.272;9.580;2023-04-29T02:13:23;18.47;;;11.47;;
21166;SDS011;10741;52.272;9.580;2023-04-29T02:15:49;20.07;;;12.27;;
21166;SDS011;10741;52.272;9.580;2023-04-29T02:18:14;17.67;;;11.80;;
21166;SDS011;10741;52.272;9.580;2023-04-29T02:20:40;17.80;;;11.73;;
21166;SDS011;10741;52.272;9.580;2023-04-29T02:23:06;19.40;;;12.13;;
21166;SDS011;10741;52.272;9.580;2023-04-29T02:25:32;23.00;;;12.17;;
21166;SDS011;10741;52.272;9.580;2023-04-29T02:27:58;19.57;;;12.27;;
21166;SDS011;10741;52.272;9.580;2023-04-29T02:30:23;19.87;;;12.73;;
21166;SDS011;10741;52.272;9.580;2023-04-29T02:32:49;20.23;;;13.20;;
21166;SDS011;10741;52.272;9.580;2023-04-29T02:35:15;20.63;;;13.00;;
21166;SDS011;10741;52.272;9.580;2023-04-29T02:37:41;19.93;;;12.73;;
21166;SDS011;10741;52.272;9.580;2023-04-29T02:40:07;19.30;;;13.10;;
21166;SDS011;10741;52.272;9.580;2023-04-29T02:42:33;24.13;;;12.87;;
21166;SDS011;10741;52.272;9.580;2023-04-29T02:44:58;22.37;;;14.03;;
21166;SDS011;10741;52.272;9.580;2023-04-29T02:47:25;20.63;;;13.37;;
21166;SDS011;10741;52.272;9.580;2023-04-29T02:49:50;24.30;;;14.90;;
21166;SDS011;10741;52.272;9.580;2023-04-29T02:52:16;23.07;;;13.90;;
21166;SDS011;10741;52.272;9.580;2023-04-29T02:54:43;25.37;;;15.97;;
21166;SDS011;10741;52.272;9.580;2023-04-29T02:57:08;28.53;;;18.07;;
21166;SDS011;10741;52.272;9.580;2023-04-29T02:59:35;36.33;;;22.70;;
21166;SDS011;10741;52.272;9.580;2023-04-29T03:02:01;46.13;;;25.47;;
21166;SDS011;10741;52.272;9.580;2023-04-29T03:04:27;45.00;;;26.00;;
21166;SDS011;10741;52.272;9.580;2023-04-29T03:06:55;53.87;;;30.03;;
21166;SDS011;10741;52.272;9.580;2023-04-29T03:09:22;53.03;;;28.80;;
21166;SDS011;10741;52.272;9.580;2023-04-29T03:11:48;61.07;;;32.67;;
21166;SDS011;10741;52.272;9.580;2023-04-29T03:14:14;60.40;;;32.63;;
21166;SDS011;10741;52.272;9.580;2023-04-29T03:16:40;59.87;;;33.03;;
21166;SDS011;10741;52.272;9.580;2023-04-29T03:19:06;62.53;;;33.77;;
21166;SDS011;10741;52.272;9.580;2023-04-29T03:21:32;67.27;;;35.10;;
21166;SDS011;10741;52.272;9.580;2023-04-29T03:23:58;65.73;;;33.90;;
21166;SDS011;10741;52.272;9.580;2023-04-29T03:26:24;58.93;;;32.40;;
21166;SDS011;10741;52.272;9.580;2023-04-29T03:28:50;58.23;;;33.63;;
21166;SDS011;10741;52.272;9.580;2023-04-29T03:31:16;51.90;;;30.97;;
21166;SDS011;10741;52.272;9.580;2023-04-29T03:33:42;62.83;;;32.73;;
21166;SDS011;10741;52.272;9.580;2023-04-29T03:36:07;56.90;;;33.70;;
21166;SDS011;10741;52.272;9.580;2023-04-29T03:38:33;52.73;;;31.20;;
21166;SDS011;10741;52.272;9.580;2023-04-29T03:40:59;52.00;;;32.23;;
21166;SDS011;10741;52.272;9.580;2023-04-29T03:43:25;47.70;;;30.17;;
21166;SDS011;10741;52.272;9.580;2023-04-29T03:45:51;49.83;;;31.77;;
21166;SDS011;10741;52.272;9.580;2023-04-29T03:48:17;48.93;;;32.23;;
21166;SDS011;10741;52.272;9.580;2023-04-29T03:50:44;49.60;;;32.03;;
21166;SDS011;10741;52.272;9.580;2023-04-29T03:53:10;49.53;;;31.60;;
21166;SDS011;10741;52.272;9.580;2023-04-29T03:55:36;46.00;;;31.67;;
21166;SDS011;10741;52.272;9.580;2023-04-29T03:58:02;46.63;;;32.13;;
21166;SDS011;10741;52.272;9.580;2023-04-29T04:00:29;43.63;;;29.70;;
21166;SDS011;10741;52.272;9.580;2023-04-29T04:02:55;46.00;;;31.50;;
21166;SDS011;10741;52.272;9.580;2023-04-29T04:05:22;45.33;;;31.10;;
21166;SDS011;10741;52.272;9.580;2023-04-29T04:07:49;42.80;;;30.03;;
21166;SDS011;10741;52.272;9.580;2023-04-29T04:10:16;40.63;;;28.10;;
21166;SDS011;10741;52.272;9.580;2023-04-29T04:12:42;42.00;;;29.43;;
21166;SDS011;10741;52.272;9.580;2023-04-29T04:15:08;49.47;;;31.80;;
21166;SDS011;10741;52.272;9.580;2023-04-29T04:17:35;46.47;;;32.17;;
21166;SDS011;10741;52.272;9.580;2023-04-29T04:20:01;47.80;;;33.33;;
21166;SDS011;10741;52.272;9.580;2023-04-29T04:22:27;50.17;;;34.73;;
21166;SDS011;10741;52.272;9.580;2023-04-29T04:24:56;49.70;;;33.73;;
21166;SDS011;10741;52.272;9.580;2023-04-29T04:27:21;51.63;;;35.20;;
21166;SDS011;10741;52.272;9.580;2023-04-29T04:29:47;55.03;;;36.13;;
21166;SDS011;10741;52.272;9.580;2023-04-29T04:32:17;56.07;;;36.67;;
21166;SDS011;10741;52.272;9.580;2023-04-29T04:34:42;57.63;;;37.83;;
21166;SDS011;10741;52.272;9.580;2023-04-29T04:37:08;61.87;;;38.73;;
21166;SDS011;10741;52.272;9.580;2023-04-29T04:39:34;60.13;;;39.13;;
21166;SDS011;10741;52.272;9.580;2023-04-29T04:42:00;60.37;;;39.03;;
21166;SDS011;10741;52.272;9.580;2023-04-29T04:44:27;62.03;;;39.63;;
21166;SDS011;10741;52.272;9.580;2023-04-29T04:46:54;64.37;;;40.80;;
21166;SDS011;10741;52.272;9.580;2023-04-29T04:49:21;68.70;;;43.90;;
21166;SDS011;10741;52.272;9.580;2023-04-29T04:51:49;69.80;;;44.03;;
21166;SDS011;10741;52.272;9.580;2023-04-29T04:54:15;67.40;;;43.77;;
21166;SDS011;10741;52.272;9.580;2023-04-29T04:56:41;72.90;;;44.13;;
21166;SDS011;10741;52.272;9.580;2023-04-29T04:59:07;70.60;;;45.23;;
21166;SDS011;10741;52.272;9.580;2023-04-29T05:01:32;68.67;;;42.73;;
21166;SDS011;10741;52.272;9.580;2023-04-29T05:03:58;66.63;;;43.10;;
21166;SDS011;10741;52.272;9.580;2023-04-29T05:06:24;62.93;;;40.93;;
21166;SDS011;10741;52.272;9.580;2023-04-29T05:08:50;63.60;;;42.23;;
21166;SDS011;10741;52.272;9.580;2023-04-29T05:11:19;66.73;;;40.73;;
21166;SDS011;10741;52.272;9.580;2023-04-29T05:13:46;68.53;;;45.20;;
21166;SDS011;10741;52.272;9.580;2023-04-29T05:16:12;73.63;;;45.47;;
21166;SDS011;10741;52.272;9.580;2023-04-29T05:18:38;74.07;;;45.17;;
21166;SDS011;10741;52.272;9.580;2023-04-29T05:21:04;74.80;;;44.80;;
21166;SDS011;10741;52.272;9.580;2023-04-29T05:23:30;70.20;;;44.37;;
21166;SDS011;10741;52.272;9.580;2023-04-29T05:25:55;76.93;;;46.53;;
21166;SDS011;10741;52.272;9.580;2023-04-29T05:28:21;76.47;;;47.13;;
21166;SDS011;10741;52.272;9.580;2023-04-29T05:30:49;78.93;;;48.63;;
21166;SDS011;10741;52.272;9.580;2023-04-29T05:33:15;77.73;;;49.47;;
21166;SDS011;10741;52.272;9.580;2023-04-29T05:35:41;85.07;;;49.13;;
21166;SDS011;10741;52.272;9.580;2023-04-29T05:38:07;79.37;;;49.10;;
21166;SDS011;10741;52.272;9.580;2023-04-29T05:40:33;77.20;;;49.77;;
21166;SDS011;10741;52.272;9.580;2023-04-29T05:42:59;76.97;;;48.00;;
21166;SDS011;10741;52.272;9.580;2023-04-29T05:45:25;76.73;;;48.30;;
21166;SDS011;10741;52.272;9.580;2023-04-29T05:47:50;76.87;;;48.23;;
21166;SDS011;10741;52.272;9.580;2023-04-29T05:50:16;71.33;;;46.80;;
21166;SDS011;10741;52.272;9.580;2023-04-29T05:52:42;75.90;;;48.47;;
21166;SDS011;10741;52.272;9.580;2023-04-29T05:55:08;71.27;;;45.73;;
21166;SDS011;10741;52.272;9.580;2023-04-29T05:57:34;68.80;;;45.47;;
21166;SDS011;10741;52.272;9.580;2023-04-29T05:59:59;60.03;;;40.80;;
21166;SDS011;10741;52.272;9.580;2023-04-29T06:02:25;60.33;;;39.17;;
21166;SDS011;10741;52.272;9.580;2023-04-29T06:04:51;54.47;;;38.10;;
21166;SDS011;10741;52.272;9.580;2023-04-29T06:07:17;49.53;;;36.97;;
21166;SDS011;10741;52.272;9.580;2023-04-29T06:09:43;50.47;;;36.03;;
21166;SDS011;10741;52.272;9.580;2023-04-29T06:12:09;52.93;;;36.97;;
21166;SDS011;10741;52.272;9.580;2023-04-29T06:14:35;53.07;;;37.43;;
21166;SDS011;10741;52.272;9.580;2023-04-29T06:17:01;51.87;;;37.90;;
21166;SDS011;10741;52.272;9.580;2023-04-29T06:19:28;54.07;;;37.90;;
21166;SDS011;10741;52.272;9.580;2023-04-29T06:21:53;49.87;;;36.50;;
21166;SDS011;10741;52.272;9.580;2023-04-29T06:24:19;57.50;;;38.90;;
21166;SDS011;10741;52.272;9.580;2023-04-29T06:26:45;54.50;;;37.87;;
21166;SDS011;10741;52.272;9.580;2023-04-29T06:29:11;53.50;;;36.97;;
21166;SDS011;10741;52.272;9.580;2023-04-29T06:31:36;48.30;;;36.23;;
21166;SDS011;10741;52.272;9.580;2023-04-29T06:34:02;50.30;;;34.80;;
21166;SDS011;10741;52.272;9.580;2023-04-29T06:36:28;48.60;;;33.37;;
21166;SDS011;10741;52.272;9.580;2023-04-29T06:38:54;46.00;;;32.93;;
21166;SDS011;10741;52.272;9.580;2023-04-29T06:41:19;45.50;;;33.87;;
21166;SDS011;10741;52.272;9.580;2023-04-29T06:43:45;45.17;;;33.50;;
21166;SDS011;10741;52.272;9.580;2023-04-29T06:46:11;43.97;;;31.93;;
21166;SDS011;10741;52.272;9.580;2023-04-29T06:48:37;45.60;;;32.63;;
21166;SDS011;10741;52.272;9.580;2023-04-29T06:51:03;44.33;;;30.67;;
21166;SDS011;10741;52.272;9.580;2023-04-29T06:53:29;42.37;;;31.00;;
21166;SDS011;10741;52.272;9.580;2023-04-29T06:55:54;41.83;;;28.70;;
21166;SDS011;10741;52.272;9.580;2023-04-29T06:58:20;39.77;;;29.40;;
21166;SDS011;10741;52.272;9.580;2023-04-29T07:00:47;39.90;;;28.60;;
21166;SDS011;10741;52.272;9.580;2023-04-29T07:03:14;41.90;;;30.60;;
21166;SDS011;10741;52.272;9.580;2023-04-29T07:05:42;41.33;;;30.93;;
21166;SDS011;10741;52.272;9.580;2023-04-29T07:08:09;40.87;;;29.20;;
21166;SDS011;10741;52.272;9.580;2023-04-29T07:10:36;42.07;;;28.93;;
21166;SDS011;10741;52.272;9.580;2023-04-29T07:13:02;38.23;;;27.70;;
21166;SDS011;10741;52.272;9.580;2023-04-29T07:15:29;34.63;;;27.07;;
21166;SDS011;10741;52.272;9.580;2023-04-29T07:17:57;34.07;;;25.23;;
21166;SDS011;10741;52.272;9.580;2023-04-29T07:20:24;36.00;;;27.80;;
21166;SDS011;10741;52.272;9.580;2023-04-29T07:22:51;34.67;;;25.00;;
21166;SDS011;10741;52.272;9.580;2023-04-29T07:25:17;34.27;;;26.43;;
21166;SDS011;10741;52.272;9.580;2023-04-29T07:27:43;29.67;;;25.17;;
21166;SDS011;10741;52.272;9.580;2023-04-29T07:30:09;30.83;;;23.77;;
21166;SDS011;10741;52.272;9.580;2023-04-29T07:32:34;29.40;;;23.43;;
21166;SDS011;10741;52.272;9.580;2023-04-29T07:35:01;27.93;;;23.23;;
21166;SDS011;10741;52.272;9.580;2023-04-29T07:37:27;29.70;;;24.03;;
21166;SDS011;10741;52.272;9.580;2023-04-29T07:39:53;25.13;;;22.00;;
21166;SDS011;10741;52.272;9.580;2023-04-29T07:42:22;26.03;;;20.50;;
21166;SDS011;10741;52.272;9.580;2023-04-29T07:44:47;25.20;;;21.23;;
21166;SDS011;10741;52.272;9.580;2023-04-29T07:47:13;24.33;;;20.50;;
21166;SDS011;10741;52.272;9.580;2023-04-29T07:49:39;23.47;;;19.80;;
21166;SDS011;10741;52.272;9.580;2023-04-29T07:52:06;19.93;;;17.80;;
21166;SDS011;10741;52.272;9.580;2023-04-29T07:54:34;20.40;;;18.17;;
21166;SDS011;10741;52.272;9.580;2023-04-29T07:57:00;21.37;;;17.40;;
21166;SDS011;10741;52.272;9.580;2023-04-29T07:59:28;20.17;;;17.70;;
21166;SDS011;10741;52.272;9.580;2023-04-29T08:01:57;21.63;;;18.00;;
21166;SDS011;10741;52.272;9.580;2023-04-29T08:04:22;21.83;;;18.77;;
21166;SDS011;10741;52.272;9.580;2023-04-29T08:06:48;21.07;;;18.87;;
21166;SDS011;10741;52.272;9.580;2023-04-29T08:09:14;19.27;;;17.27;;
21166;SDS011;10741;52.272;9.580;2023-04-29T08:11:40;20.63;;;17.70;;
21166;SDS011;10741;52.272;9.580;2023-04-29T08:14:07;19.83;;;17.17;;
21166;SDS011;10741;52.272;9.580;2023-04-29T08:16:33;20.17;;;17.57;;
21166;SDS011;10741;52.272;9.580;2023-04-29T08:18:59;18.50;;;16.33;;
21166;SDS011;10741;52.272;9.580;2023-04-29T08:21:25;19.37;;;17.23;;
21166;SDS011;10741;52.272;9.580;2023-04-29T08:23:51;18.57;;;16.57;;
21166;SDS011;10741;52.272;9.580;2023-04-29T08:26:18;19.27;;;14.47;;
21166;SDS011;10741;52.272;9.580;2023-04-29T08:28:44;16.97;;;15.17;;
21166;SDS011;10741;52.272;9.580;2023-04-29T08:31:16;16.47;;;14.77;;
21166;SDS011;10741;52.272;9.580;2023-04-29T08:33:42;17.93;;;15.53;;
21166;SDS011;10741;52.272;9.580;2023-04-29T08:36:08;17.40;;;15.63;;
21166;SDS011;10741;52.272;9.580;2023-04-29T08:38:34;19.10;;;15.17;;
21166;SDS011;10741;52.272;9.580;2023-04-29T08:41:00;15.70;;;14.00;;
21166;SDS011;10741;52.272;9.580;2023-04-29T08:43:25;15.67;;;14.00;;
21166;SDS011;10741;52.272;9.580;2023-04-29T08:45:52;14.80;;;13.10;;
21166;SDS011;10741;52.272;9.580;2023-04-29T08:48:18;14.33;;;12.43;;
21166;SDS011;10741;52.272;9.580;2023-04-29T08:50:43;15.10;;;13.60;;
21166;SDS011;10741;52.272;9.580;2023-04-29T08:53:10;15.20;;;13.23;;
21166;SDS011;10741;52.272;9.580;2023-04-29T08:55:44;16.10;;;13.10;;
21166;SDS011;10741;52.272;9.580;2023-04-29T08:58:12;16.47;;;13.97;;
21166;SDS011;10741;52.272;9.580;2023-04-29T09:00:40;15.43;;;12.27;;
21166;SDS011;10741;52.272;9.580;2023-04-29T09:03:16;14.50;;;12.10;;
21166;SDS011;10741;52.272;9.580;2023-04-29T09:06:01;13.73;;;12.33;;
21166;SDS011;10741;52.272;9.580;2023-04-29T09:08:29;12.73;;;11.23;;
21166;SDS011;10741;52.272;9.580;2023-04-29T09:10:56;12.50;;;11.20;;
21166;SDS011;10741;52.272;9.580;2023-04-29T09:13:27;12.83;;;11.43;;
21166;SDS011;10741;52.272;9.580;2023-04-29T09:15:55;15.10;;;11.93;;
21166;SDS011;10741;52.272;9.580;2023-04-29T09:23:48;16.70;;;12.50;;
21166;SDS011;10741;52.272;9.580;2023-04-29T09:26:18;13.73;;;11.83;;
21166;SDS011;10741;52.272;9.580;2023-04-29T09:28:44;11.83;;;10.60;;
21166;SDS011;10741;52.272;9.580;2023-04-29T09:31:11;13.50;;;11.43;;
21166;SDS011;10741;52.272;9.580;2023-04-29T09:33:53;13.60;;;12.20;;
21166;SDS011;10741;52.272;9.580;2023-04-29T09:39:01;15.30;;;13.70;;
21166;SDS011;10741;52.272;9.580;2023-04-29T09:41:35;14.43;;;12.33;;
21166;SDS011;10741;52.272;9.580;2023-04-29T09:44:06;13.73;;;12.33;;
21166;SDS011;10741;52.272;9.580;2023-04-29T09:46:33;15.30;;;13.67;;
21166;SDS011;10741;52.272;9.580;2023-04-29T09:49:00;16.30;;;11.90;;
21166;SDS011;10741;52.272;9.580;2023-04-29T09:51:27;13.10;;;11.70;;
21166;SDS011;10741;52.272;9.580;2023-04-29T09:53:56;18.83;;;14.57;;
21166;SDS011;10741;52.272;9.580;2023-04-29T09:56:23;16.10;;;14.00;;
21166;SDS011;10741;52.272;9.580;2023-04-29T09:58:53;16.57;;;13.70;;
21166;SDS011;10741;52.272;9.580;2023-04-29T10:01:19;15.97;;;14.37;;
21166;SDS011;10741;52.272;9.580;2023-04-29T10:03:47;19.33;;;15.13;;
21166;SDS011;10741;52.272;9.580;2023-04-29T10:06:14;16.20;;;13.73;;
21166;SDS011;10741;52.272;9.580;2023-04-29T10:08:41;17.27;;;14.43;;
21166;SDS011;10741;52.272;9.580;2023-04-29T10:11:10;16.83;;;14.90;;
21166;SDS011;10741;52.272;9.580;2023-04-29T10:13:36;19.60;;;15.47;;
21166;SDS011;10741;52.272;9.580;2023-04-29T10:18:40;17.93;;;15.80;;
21166;SDS011;10741;52.272;9.580;2023-04-29T10:21:08;20.57;;;16.03;;
21166;SDS011;10741;52.272;9.580;2023-04-29T10:23:35;16.87;;;14.30;;
21166;SDS011;10741;52.272;9.580;2023-04-29T10:26:02;16.63;;;14.67;;
21166;SDS011;10741;52.272;9.580;2023-04-29T10:28:30;18.43;;;14.30;;
21166;SDS011;10741;52.272;9.580;2023-04-29T10:30:57;16.20;;;14.20;;
21166;SDS011;10741;52.272;9.580;2023-04-29T10:33:31;15.77;;;14.13;;
21166;SDS011;10741;52.272;9.580;2023-04-29T10:36:00;17.77;;;14.03;;
21166;SDS011;10741;52.272;9.580;2023-04-29T10:38:32;15.07;;;13.20;;
21166;SDS011;10741;52.272;9.580;2023-04-29T10:41:01;14.23;;;12.30;;
21166;SDS011;10741;52.272;9.580;2023-04-29T10:43:33;15.10;;;11.90;;
21166;SDS011;10741;52.272;9.580;2023-04-29T10:48:42;14.50;;;12.50;;
21166;SDS011;10741;52.272;9.580;2023-04-29T10:51:08;15.23;;;13.50;;
21166;SDS011;10741;52.272;9.580;2023-04-29T10:53:34;15.30;;;13.70;;
21166;SDS011;10741;52.272;9.580;2023-04-29T10:56:04;15.53;;;13.03;;
21166;SDS011;10741;52.272;9.580;2023-04-29T11:01:13;12.30;;;11.03;;
21166;SDS011;10741;52.272;9.580;2023-04-29T11:03:53;14.93;;;12.80;;
21166;SDS011;10741;52.272;9.580;2023-04-29T11:09:20;13.03;;;11.83;;
21166;SDS011;10741;52.272;9.580;2023-04-29T11:14:26;13.83;;;12.43;;
21166;SDS011;10741;52.272;9.580;2023-04-29T11:16:58;13.70;;;12.30;;
21166;SDS011;10741;52.272;9.580;2023-04-29T11:22:23;13.90;;;12.00;;
21166;SDS011;10741;52.272;9.580;2023-04-29T11:24:57;16.57;;;12.10;;
21166;SDS011;10741;52.272;9.580;2023-04-29T11:29:57;13.13;;;11.77;;
21166;SDS011;10741;52.272;9.580;2023-04-29T11:32:24;12.27;;;10.37;;
21166;SDS011;10741;52.272;9.580;2023-04-29T11:35:16;12.53;;;10.03;;
21166;SDS011;10741;52.272;9.580;2023-04-29T11:37:44;12.50;;;11.17;;
21166;SDS011;10741;52.272;9.580;2023-04-29T11:40:11;12.93;;;11.63;;
21166;SDS011;10741;52.272;9.580;2023-04-29T11:42:44;14.30;;;10.73;;
21166;SDS011;10741;52.272;9.580;2023-04-29T11:45:15;11.67;;;10.37;;
21166;SDS011;10741;52.272;9.580;2023-04-29T11:47:42;11.90;;;9.83;;
21166;SDS011;10741;52.272;9.580;2023-04-29T11:50:10;12.30;;;9.60;;
21166;SDS011;10741;52.272;9.580;2023-04-29T11:52:37;12.93;;;9.87;;
21166;SDS011;10741;52.272;9.580;2023-04-29T11:55:04;10.77;;;9.23;;
21166;SDS011;10741;52.272;9.580;2023-04-29T11:57:32;12.47;;;9.43;;
21166;SDS011;10741;52.272;9.580;2023-04-29T11:59:58;11.50;;;9.10;;
21166;SDS011;10741;52.272;9.580;2023-04-29T12:02:31;10.77;;;8.27;;
21166;SDS011;10741;52.272;9.580;2023-04-29T12:04:58;9.90;;;8.73;;
21166;SDS011;10741;52.272;9.580;2023-04-29T12:07:25;10.77;;;9.63;;
21166;SDS011;10741;52.272;9.580;2023-04-29T12:09:51;11.17;;;9.00;;
21166;SDS011;10741;52.272;9.580;2023-04-29T12:12:17;8.90;;;8.07;;
21166;SDS011;10741;52.272;9.580;2023-04-29T12:14:43;11.83;;;8.33;;
21166;SDS011;10741;52.272;9.580;2023-04-29T12:17:09;12.03;;;9.10;;
21166;SDS011;10741;52.272;9.580;2023-04-29T12:19:35;13.37;;;9.60;;
21166;SDS011;10741;52.272;9.580;2023-04-29T12:22:03;11.13;;;8.40;;
21166;SDS011;10741;52.272;9.580;2023-04-29T12:24:36;10.93;;;8.57;;
21166;SDS011;10741;52.272;9.580;2023-04-29T12:27:03;15.00;;;9.20;;
21166;SDS011;10741;52.272;9.580;2023-04-29T12:29:34;10.07;;;7.77;;
21166;SDS011;10741;52.272;9.580;2023-04-29T12:32:06;9.10;;;8.00;;
21166;SDS011;10741;52.272;9.580;2023-04-29T12:34:38;10.30;;;7.80;;
21166;SDS011;10741;52.272;9.580;2023-04-29T12:37:04;8.27;;;7.33;;
21166;SDS011;10741;52.272;9.580;2023-04-29T12:39:29;10.70;;;7.73;;
21166;SDS011;10741;52.272;9.580;2023-04-29T12:41:59;9.77;;;7.57;;
21166;SDS011;10741;52.272;9.580;2023-04-29T12:44:34;9.37;;;8.37;;
21166;SDS011;10741;52.272;9.580;2023-04-29T12:47:10;9.30;;;7.80;;
21166;SDS011;10741;52.272;9.580;2023-04-29T12:49:37;8.27;;;7.47;;
21166;SDS011;10741;52.272;9.580;2023-04-29T12:52:06;8.77;;;7.80;;
21166;SDS011;10741;52.272;9.580;2023-04-29T12:54:35;9.83;;;7.87;;
21166;SDS011;10741;52.272;9.580;2023-04-29T12:57:01;10.23;;;8.13;;
21166;SDS011;10741;52.272;9.580;2023-04-29T12:59:28;12.57;;;8.63;;
21166;SDS011;10741;52.272;9.580;2023-04-29T13:01:53;10.67;;;8.20;;
21166;SDS011;10741;52.272;9.580;2023-04-29T13:04:19;10.60;;;8.33;;
21166;SDS011;10741;52.272;9.580;2023-04-29T13:06:45;9.03;;;7.03;;
21166;SDS011;10741;52.272;9.580;2023-04-29T13:09:11;9.93;;;7.37;;
21166;SDS011;10741;52.272;9.580;2023-04-29T13:11:37;8.33;;;7.43;;
21166;SDS011;10741;52.272;9.580;2023-04-29T13:14:03;7.83;;;6.83;;
21166;SDS011;10741;52.272;9.580;2023-04-29T13:16:31;9.73;;;6.93;;
21166;SDS011;10741;52.272;9.580;2023-04-29T13:18:57;9.17;;;6.70;;
21166;SDS011;10741;52.272;9.580;2023-04-29T13:21:23;7.30;;;6.50;;
21166;SDS011;10741;52.272;9.580;2023-04-29T13:23:49;11.07;;;7.03;;
21166;SDS011;10741;52.272;9.580;2023-04-29T13:26:16;8.77;;;6.47;;
21166;SDS011;10741;52.272;9.580;2023-04-29T13:28:42;8.10;;;6.03;;
21166;SDS011;10741;52.272;9.580;2023-04-29T13:31:08;8.87;;;6.23;;
21166;SDS011;10741;52.272;9.580;2023-04-29T13:33:35;6.83;;;5.40;;
21166;SDS011;10741;52.272;9.580;2023-04-29T13:36:00;6.73;;;5.83;;
21166;SDS011;10741;52.272;9.580;2023-04-29T13:38:26;6.20;;;5.50;;
21166;SDS011;10741;52.272;9.580;2023-04-29T13:40:52;8.73;;;4.93;;
21166;SDS011;10741;52.272;9.580;2023-04-29T13:43:18;6.53;;;5.60;;
21166;SDS011;10741;52.272;9.580;2023-04-29T13:45:44;5.93;;;5.03;;
21166;SDS011;10741;52.272;9.580;2023-04-29T13:48:10;7.67;;;5.50;;
21166;SDS011;10741;52.272;9.580;2023-04-29T13:50:35;6.77;;;5.80;;
21166;SDS011;10741;52.272;9.580;2023-04-29T13:53:01;9.47;;;6.53;;
21166;SDS011;10741;52.272;9.580;2023-04-29T13:55:27;7.93;;;6.80;;
21166;SDS011;10741;52.272;9.580;2023-04-29T13:57:53;8.27;;;7.00;;
21166;SDS011;10741;52.272;9.580;2023-04-29T14:00:20;8.37;;;7.57;;
21166;SDS011;10741;52.272;9.580;2023-04-29T14:02:45;9.20;;;7.50;;
21166;SDS011;10741;52.272;9.580;2023-04-29T14:05:11;8.07;;;7.27;;
21166;SDS011;10741;52.272;9.580;2023-04-29T14:07:38;9.03;;;6.60;;
21166;SDS011;10741;52.272;9.580;2023-04-29T14:10:04;8.30;;;6.80;;
21166;SDS011;10741;52.272;9.580;2023-04-29T14:12:30;7.93;;;7.13;;
21166;SDS011;10741;52.272;9.580;2023-04-29T14:14:56;8.13;;;7.33;;
21166;SDS011;10741;52.272;9.580;2023-04-29T14:17:21;9.67;;;7.03;;
21166;SDS011;10741;52.272;9.580;2023-04-29T14:19:47;8.57;;;7.60;;
21166;SDS011;10741;52.272;9.580;2023-04-29T14:22:13;8.90;;;8.10;;
21166;SDS011;10741;52.272;9.580;2023-04-29T14:24:39;8.97;;;7.93;;
21166;SDS011;10741;52.272;9.580;2023-04-29T14:27:05;10.17;;;9.07;;
21166;SDS011;10741;52.272;9.580;2023-04-29T14:29:30;10.03;;;8.93;;
21166;SDS011;10741;52.272;9.580;2023-04-29T14:31:56;9.57;;;8.57;;
21166;SDS011;10741;52.272;9.580;2023-04-29T14:34:22;9.80;;;8.50;;
21166;SDS011;10741;52.272;9.580;2023-04-29T14:36:48;9.83;;;8.20;;
21166;SDS011;10741;52.272;9.580;2023-04-29T14:39:13;10.37;;;7.67;;
21166;SDS011;10741;52.272;9.580;2023-04-29T14:41:39;8.63;;;7.60;;
21166;SDS011;10741;52.272;9.580;2023-04-29T14:44:05;11.57;;;7.90;;
21166;SDS011;10741;52.272;9.580;2023-04-29T14:46:32;8.90;;;7.20;;
21166;SDS011;10741;52.272;9.580;2023-04-29T14:48:57;10.33;;;6.93;;
21166;SDS011;10741;52.272;9.580;2023-04-29T14:51:23;9.43;;;7.07;;
21166;SDS011;10741;52.272;9.580;2023-04-29T14:53:49;10.57;;;7.87;;
21166;SDS011;10741;52.272;9.580;2023-04-29T14:56:16;8.27;;;6.73;;
21166;SDS011;10741;52.272;9.580;2023-04-29T14:58:42;10.50;;;7.30;;
21166;SDS011;10741;52.272;9.580;2023-04-29T15:01:08;8.80;;;6.97;;
21166;SDS011;10741;52.272;9.580;2023-04-29T15:03:33;7.37;;;5.97;;
21166;SDS011;10741;52.272;9.580;2023-04-29T15:06:02;8.03;;;6.30;;